aviador You're here:

KGEV Decoded Metar

JEFFERSON in NC, USA
Report Time2018-02-22 06:35:00
UTC Time2018-02-22 06:42:01
Flight Rules vfr VFR
Wind150° at 05 kt
W.Decomp.*RWY 10: 2.7 kt HW 4.2 kt RCW
W.Rank150° ranks 7
Current wind is above 150° avg. (4.1)
Visibility9999 m
Phenomena:N/A
Clouds:Scattered 014 Hf
Expected CloudBase > 400 ft AGL from Temp-Dew spread
CeilingNone
Temp14°C (ISA +5)
Dew Point13°C (94% RH)
AAT13.1°C
QNH1030 hPa
Density Alt3,448 ft
Elevation3,179 ft
Report Wrong Elevation
Raw Report
METAR KGEV 220635Z AUTO 15005KT 10SM SCT014 14/13 A3043 RMK AO2 T01400134=

Extra information for KGEV:More info

Metar Taf Metar & Taf Last 4 Metars F.Rules Stats Wind Profile Meteogram Temp Stats Airport Information Weather charts Add Link Nearby VenuesMetar ALERT Operation Metar Decoded Social comments

AIRNAV info for KGEV